createdAt,value
2023-02-06T00:01:26.767Z,-8.51
2023-02-06T00:03:54.887Z,-8.51
2023-02-06T00:06:22.871Z,-8.52
2023-02-06T00:08:50.740Z,-8.41
2023-02-06T00:11:21.260Z,-8.51
2023-02-06T00:13:49.578Z,-8.58
2023-02-06T00:16:18.684Z,-8.56
2023-02-06T00:18:46.747Z,-8.58
2023-02-06T00:21:20.230Z,-8.69
2023-02-06T00:23:48.440Z,-8.84
2023-02-06T00:26:16.319Z,-8.89
2023-02-06T00:28:45.791Z,-8.55
2023-02-06T00:31:13.848Z,-8.69
2023-02-06T00:33:43.903Z,-8.81
2023-02-06T00:36:13.484Z,-8.88
2023-02-06T00:38:41.511Z,-8.68
2023-02-06T00:41:09.492Z,-8.73
2023-02-06T00:43:38.345Z,-8.78
2023-02-06T00:46:07.736Z,-8.64
2023-02-06T00:48:35.634Z,-8.68
2023-02-06T00:51:03.549Z,-8.71
2023-02-06T00:53:31.449Z,-8.76
2023-02-06T00:55:59.379Z,-8.81
2023-02-06T00:58:27.275Z,-8.85
2023-02-06T01:00:55.464Z,-8.93
2023-02-06T01:03:24.761Z,-8.77
2023-02-06T01:05:52.665Z,-8.91
2023-02-06T01:08:20.596Z,-9.11
2023-02-06T01:10:48.502Z,-8.98
2023-02-06T01:13:18.825Z,-9.19
2023-02-06T01:15:46.898Z,-9.13
2023-02-06T01:18:14.856Z,-8.94
2023-02-06T01:20:44.127Z,-8.96
2023-02-06T01:23:12.012Z,-9.07
2023-02-06T01:25:39.945Z,-9.08
2023-02-06T01:28:07.911Z,-9.13
2023-02-06T01:30:44.686Z,-9.20
2023-02-06T01:33:12.599Z,-9.23
2023-02-06T01:35:40.480Z,-9.18
2023-02-06T01:38:09.796Z,-9.21
2023-02-06T01:40:37.747Z,-9.17
2023-02-06T01:43:06.902Z,-9.25
2023-02-06T01:45:48.862Z,-9.29
2023-02-06T01:48:22.518Z,-9.33
2023-02-06T01:50:53.013Z,-9.41
2023-02-06T01:53:23.941Z,-9.50
2023-02-06T01:55:52.679Z,-9.68
2023-02-06T01:58:23.541Z,-9.65
2023-02-06T02:00:51.538Z,-9.58
2023-02-06T02:03:19.606Z,-9.47
2023-02-06T02:05:48.328Z,-9.48
2023-02-06T02:08:19.692Z,-9.29
2023-02-06T02:10:49.119Z,-9.38
2023-02-06T02:13:17.203Z,-9.39
2023-02-06T02:15:51.527Z,-9.47
2023-02-06T02:18:37.014Z,-9.33
2023-02-06T02:21:47.877Z,-9.40
2023-02-06T02:24:23.309Z,-9.54
2023-02-06T02:27:10.938Z,-9.59
2023-02-06T02:30:13.967Z,-9.66
2023-02-06T02:33:22.897Z,-9.82
2023-02-06T02:35:55.130Z,-9.99
2023-02-06T02:38:39.702Z,-10.06
2023-02-06T02:41:16.580Z,-9.96
2023-02-06T02:43:45.947Z,-9.72
2023-02-06T02:46:23.728Z,-9.74
2023-02-06T02:48:54.100Z,-9.81
2023-02-06T02:51:24.211Z,-9.80
2023-02-06T02:53:52.089Z,-9.81
2023-02-06T02:56:22.412Z,-9.81
2023-02-06T02:58:52.439Z,-9.94
2023-02-06T03:01:22.602Z,-10.11
2023-02-06T03:03:55.399Z,-10.14
2023-02-06T03:06:36.461Z,-10.06
2023-02-06T03:09:07.219Z,-9.99
2023-02-06T03:11:42.896Z,-9.93
2023-02-06T03:14:16.015Z,-9.88
2023-02-06T03:16:47.156Z,-9.82
2023-02-06T03:19:16.753Z,-9.94
2023-02-06T03:21:46.672Z,-10.09
2023-02-06T03:24:16.928Z,-10.03
2023-02-06T03:26:45.382Z,-10.05
2023-02-06T03:29:14.354Z,-10.22
2023-02-06T03:31:46.974Z,-10.28
2023-02-06T03:34:19.279Z,-10.05
2023-02-06T03:36:49.088Z,-10.04
2023-02-06T03:39:16.995Z,-10.18
2023-02-06T03:41:45.610Z,-9.93
2023-02-06T03:44:16.824Z,-9.98
2023-02-06T03:46:45.428Z,-10.03
2023-02-06T03:49:14.897Z,-10.14
2023-02-06T03:51:45.152Z,-10.28
2023-02-06T03:54:15.544Z,-10.39
2023-02-06T03:56:47.327Z,-10.30
2023-02-06T03:59:15.682Z,-10.33
2023-02-06T04:01:46.508Z,-10.38
2023-02-06T04:04:15.714Z,-10.36
2023-02-06T04:06:43.807Z,-10.37
2023-02-06T04:09:11.962Z,-10.45
2023-02-06T04:11:41.364Z,-10.54
2023-02-06T04:14:09.271Z,-10.59
2023-02-06T04:16:37.240Z,-10.61
2023-02-06T04:19:05.185Z,-10.47
2023-02-06T04:21:33.076Z,-10.37
2023-02-06T04:24:00.944Z,-10.48
2023-02-06T04:26:28.867Z,-10.56
2023-02-06T04:28:58.140Z,-10.57
2023-02-06T04:31:26.101Z,-10.54
2023-02-06T04:33:54.044Z,-10.66
2023-02-06T04:36:22.028Z,-10.49
2023-02-06T04:38:49.907Z,-10.57
2023-02-06T04:41:18.015Z,-10.57
2023-02-06T04:43:46.014Z,-10.56
2023-02-06T04:46:15.294Z,-10.49
2023-02-06T04:48:43.359Z,-10.27
2023-02-06T04:51:11.280Z,-10.29
2023-02-06T04:53:39.217Z,-10.27
2023-02-06T04:56:08.552Z,-10.38
2023-02-06T04:58:36.662Z,-10.39
2023-02-06T05:01:04.884Z,-10.13
2023-02-06T05:03:34.464Z,-10.02
2023-02-06T05:06:03.439Z,-10.07
2023-02-06T05:08:32.015Z,-10.24
2023-02-06T05:10:59.943Z,-10.08
2023-02-06T05:13:27.948Z,-10.00
2023-02-06T05:15:58.051Z,-10.07
2023-02-06T05:18:26.045Z,-10.23
2023-02-06T05:20:55.294Z,-10.31
2023-02-06T05:23:23.194Z,-10.37
2023-02-06T05:25:51.126Z,-10.32
2023-02-06T05:28:19.430Z,-10.18
2023-02-06T05:30:47.753Z,-10.25
2023-02-06T05:33:15.753Z,-10.30
2023-02-06T05:35:43.833Z,-10.37
2023-02-06T05:38:13.124Z,-10.17
2023-02-06T05:40:41.094Z,-10.16
2023-02-06T05:43:09.399Z,-10.30
2023-02-06T05:45:37.756Z,-10.30
2023-02-06T05:48:06.379Z,-10.18
2023-02-06T05:50:34.284Z,-10.11
2023-02-06T05:53:02.208Z,-9.97
2023-02-06T05:55:31.516Z,-9.96
2023-02-06T05:57:59.801Z,-9.89
2023-02-06T06:00:27.723Z,-9.91
2023-02-06T06:02:55.660Z,-10.06
2023-02-06T06:05:23.555Z,-10.04
2023-02-06T06:07:51.580Z,-10.14
2023-02-06T06:10:19.704Z,-10.02
2023-02-06T06:12:48.992Z,-10.07
2023-02-06T06:15:17.263Z,-9.96
2023-02-06T06:17:45.191Z,-10.07
2023-02-06T06:20:13.360Z,-10.23
2023-02-06T06:22:41.271Z,-10.23
2023-02-06T06:25:09.663Z,-10.07
2023-02-06T06:27:37.605Z,-10.22
2023-02-06T06:30:08.142Z,-10.19
2023-02-06T06:32:36.086Z,-9.93
2023-02-06T06:35:03.998Z,-9.93
2023-02-06T06:37:31.897Z,-9.90
2023-02-06T06:39:59.823Z,-9.93
2023-02-06T06:42:27.727Z,-10.00
2023-02-06T06:44:55.597Z,-10.02
2023-02-06T06:47:24.935Z,-9.93
2023-02-06T06:49:52.848Z,-9.74
2023-02-06T06:52:25.407Z,-9.69
2023-02-06T06:54:53.886Z,-9.68
2023-02-06T06:57:22.100Z,-9.53
2023-02-06T06:59:50.081Z,-9.46
2023-02-06T07:02:18.456Z,-9.25
2023-02-06T07:04:47.962Z,-9.04
2023-02-06T07:07:16.108Z,-9.15
2023-02-06T07:09:44.009Z,-9.06
2023-02-06T07:12:12.139Z,-9.10
2023-02-06T07:14:41.278Z,-8.99
2023-02-06T07:17:09.182Z,-8.73
2023-02-06T07:19:37.089Z,-8.79
2023-02-06T07:22:06.710Z,-8.70
2023-02-06T07:24:34.586Z,-8.51
2023-02-06T07:27:02.642Z,-8.58
2023-02-06T07:29:30.540Z,-8.37
2023-02-06T07:32:00.665Z,-8.00
2023-02-06T07:34:28.778Z,-7.98
2023-02-06T07:36:56.694Z,-7.59
2023-02-06T07:39:25.958Z,-7.37
2023-02-06T07:41:53.830Z,-7.26
2023-02-06T07:44:21.781Z,-7.19
2023-02-06T07:46:49.668Z,-7.32
2023-02-06T07:49:17.665Z,-7.34
2023-02-06T07:51:46.638Z,-7.36
2023-02-06T07:54:14.551Z,-7.29
2023-02-06T07:56:44.381Z,-6.88
2023-02-06T07:59:12.517Z,-6.82
2023-02-06T08:01:40.470Z,-6.79
2023-02-06T08:04:08.400Z,-6.82
2023-02-06T08:06:36.330Z,-6.71
2023-02-06T08:09:05.725Z,-6.47
2023-02-06T08:11:33.583Z,-6.33
2023-02-06T08:14:02.875Z,-6.18
2023-02-06T08:16:30.841Z,-6.35
2023-02-06T08:18:58.794Z,-6.31
2023-02-06T08:21:26.899Z,-6.19
2023-02-06T08:23:55.760Z,-6.16
2023-02-06T08:26:24.011Z,-6.05
2023-02-06T08:28:52.850Z,-5.98
2023-02-06T08:31:24.919Z,-5.62
2023-02-06T08:33:53.390Z,-5.58
2023-02-06T08:36:22.211Z,-5.49
2023-02-06T08:38:50.146Z,-5.24
2023-02-06T08:41:19.876Z,-5.15
2023-02-06T08:43:48.530Z,-5.62
2023-02-06T08:46:17.827Z,-5.25
2023-02-06T08:48:47.834Z,-4.69
2023-02-06T08:51:16.376Z,-4.62
2023-02-06T08:53:44.257Z,-4.57
2023-02-06T08:56:13.538Z,-4.61
2023-02-06T08:58:41.633Z,-4.52
2023-02-06T09:01:10.037Z,-4.25
2023-02-06T09:03:38.054Z,-4.57
2023-02-06T09:06:10.321Z,-4.61
2023-02-06T09:08:38.880Z,-4.75
2023-02-06T09:11:07.888Z,-4.86
2023-02-06T09:13:35.887Z,-4.55
2023-02-06T09:16:06.772Z,-4.12
2023-02-06T09:18:35.215Z,-3.70
2023-02-06T09:21:11.118Z,-3.16
2023-02-06T09:23:39.631Z,-2.98
2023-02-06T09:26:07.558Z,-2.60
2023-02-06T09:28:35.542Z,-2.51
2023-02-06T09:31:03.679Z,-2.51
2023-02-06T09:33:31.657Z,-2.08
2023-02-06T09:36:03.611Z,-2.08
2023-02-06T09:38:32.928Z,-2.21
2023-02-06T09:41:01.945Z,-2.20
2023-02-06T09:43:30.609Z,-2.12
2023-02-06T09:46:01.723Z,-2.60
2023-02-06T09:48:32.099Z,-2.54
2023-02-06T09:51:08.606Z,-3.12
2023-02-06T09:53:46.915Z,-3.36
2023-02-06T09:56:20.880Z,-3.10
2023-02-06T09:58:54.084Z,-3.05
2023-02-06T10:01:24.673Z,-2.53
2023-02-06T10:04:01.363Z,-2.08
2023-02-06T10:06:31.215Z,-2.15
2023-02-06T10:09:03.079Z,-2.17
2023-02-06T10:11:41.649Z,-2.03
2023-02-06T10:14:17.265Z,-2.05
2023-02-06T10:16:47.737Z,-2.20
2023-02-06T10:19:20.370Z,-2.35
2023-02-06T10:21:51.651Z,-2.44
2023-02-06T10:24:26.962Z,-2.41
2023-02-06T10:26:54.919Z,-2.63
2023-02-06T10:29:27.277Z,-2.79
2023-02-06T10:32:00.729Z,-2.95
2023-02-06T10:34:47.772Z,-2.88
2023-02-06T10:37:37.826Z,-2.57
2023-02-06T10:40:20.791Z,-2.52
2023-02-06T10:42:53.830Z,-2.54
2023-02-06T10:45:31.783Z,-2.38
2023-02-06T10:48:02.790Z,-2.37
2023-02-06T10:50:33.419Z,-2.28
2023-02-06T10:53:04.806Z,-2.06
2023-02-06T10:55:40.871Z,-2.05
2023-02-06T10:58:15.801Z,-1.94
2023-02-06T11:00:45.011Z,-1.95
2023-02-06T11:03:16.008Z,-2.00
2023-02-06T11:05:43.898Z,-2.05
2023-02-06T11:08:16.949Z,-1.68
2023-02-06T11:10:46.584Z,-1.57
2023-02-06T11:13:22.018Z,-1.31
2023-02-06T11:15:55.437Z,-1.14
2023-02-06T11:18:27.630Z,-1.09
2023-02-06T11:20:55.999Z,-0.75
2023-02-06T11:23:25.996Z,-1.01
2023-02-06T11:26:05.130Z,-1.63
2023-02-06T11:28:34.476Z,-2.15
2023-02-06T11:31:04.409Z,-1.85
2023-02-06T11:33:39.377Z,-1.86
2023-02-06T11:36:10.580Z,-1.52
2023-02-06T11:38:38.478Z,-1.82
2023-02-06T11:41:18.196Z,-1.92
2023-02-06T11:43:50.547Z,-1.86
2023-02-06T11:46:21.342Z,-1.80
2023-02-06T11:48:50.766Z,-1.96
2023-02-06T11:51:18.680Z,-1.92
2023-02-06T11:53:57.913Z,-1.98
2023-02-06T11:56:28.808Z,-1.88
2023-02-06T11:59:07.162Z,-1.97
2023-02-06T12:01:44.351Z,-1.91
2023-02-06T12:04:23.671Z,-1.96
2023-02-06T12:06:55.234Z,-2.04
2023-02-06T12:09:23.187Z,-1.78
2023-02-06T12:11:55.688Z,-1.57
2023-02-06T12:14:29.770Z,-1.48
2023-02-06T12:16:57.876Z,-1.51
2023-02-06T12:19:31.823Z,-1.38
2023-02-06T12:22:03.407Z,-1.22
2023-02-06T12:24:35.046Z,-1.42
2023-02-06T12:27:07.608Z,-0.91
2023-02-06T12:29:38.416Z,-0.90
2023-02-06T12:32:09.933Z,-0.94
2023-02-06T12:34:49.742Z,-0.85
2023-02-06T12:37:21.614Z,-0.94
2023-02-06T12:39:50.308Z,-0.96
2023-02-06T12:42:44.374Z,-0.59
2023-02-06T12:45:19.029Z,-0.50
2023-02-06T12:47:52.021Z,-0.52
2023-02-06T12:50:24.258Z,-0.26
2023-02-06T12:52:56.224Z,-0.18
2023-02-06T12:55:28.434Z,-0.13
2023-02-06T12:57:58.812Z,-0.19
2023-02-06T13:00:47.819Z,-0.47
2023-02-06T13:03:23.872Z,-0.76
2023-02-06T13:05:54.309Z,-0.95
2023-02-06T13:08:26.758Z,-0.41
2023-02-06T13:11:04.151Z,-0.85
2023-02-06T13:13:37.636Z,-0.54
2023-02-06T13:16:06.806Z,-0.26
2023-02-06T13:18:38.652Z,-0.24
2023-02-06T13:21:17.989Z,-0.16
2023-02-06T13:24:16.860Z,-0.24
2023-02-06T13:27:11.229Z,0.39
2023-02-06T13:29:42.780Z,0.38
2023-02-06T13:32:43.195Z,-0.06
2023-02-06T13:35:21.949Z,-0.14
2023-02-06T13:37:51.485Z,-0.23
2023-02-06T13:40:30.610Z,-0.29
2023-02-06T13:43:01.300Z,-0.16
2023-02-06T13:45:33.216Z,0.03
2023-02-06T13:48:33.881Z,0.13
2023-02-06T13:51:21.459Z,0.39
2023-02-06T13:54:25.536Z,0.54
2023-02-06T13:57:06.075Z,0.69
2023-02-06T13:59:35.819Z,0.04
2023-02-06T14:02:12.377Z,-0.32
2023-02-06T14:04:41.194Z,-0.05
2023-02-06T14:07:33.280Z,0.15
2023-02-06T14:10:29.789Z,0.22
2023-02-06T14:13:13.021Z,0.53
2023-02-06T14:15:48.197Z,0.78
2023-02-06T14:18:35.063Z,0.85
2023-02-06T14:21:16.229Z,0.91
2023-02-06T14:24:10.984Z,1.02
2023-02-06T14:26:48.155Z,1.06
2023-02-06T14:29:24.252Z,1.11
2023-02-06T14:32:10.166Z,1.14
2023-02-06T14:34:51.249Z,1.21
2023-02-06T14:37:33.803Z,0.43
2023-02-06T14:40:04.887Z,0.42
2023-02-06T14:42:37.484Z,0.48
2023-02-06T14:45:24.918Z,0.79
2023-02-06T14:47:53.735Z,0.79
2023-02-06T14:50:25.205Z,0.42
2023-02-06T14:52:56.650Z,0.23
2023-02-06T14:55:33.590Z,0.48
2023-02-06T14:58:04.871Z,0.70
2023-02-06T15:00:33.636Z,0.55
2023-02-06T15:03:08.426Z,0.44
2023-02-06T15:05:43.623Z,0.18
2023-02-06T15:08:18.955Z,-0.46
2023-02-06T15:10:47.631Z,-0.76
2023-02-06T15:13:22.793Z,-0.90
2023-02-06T15:15:55.181Z,-1.21
2023-02-06T15:18:23.301Z,-1.28
2023-02-06T15:20:55.836Z,-1.27
2023-02-06T15:23:34.931Z,-1.45
2023-02-06T15:26:06.818Z,-1.53
2023-02-06T15:28:35.826Z,-1.53
2023-02-06T15:31:04.183Z,-1.51
2023-02-06T15:33:35.923Z,-1.62
2023-02-06T15:36:08.349Z,-1.63
2023-02-06T15:38:39.887Z,-1.91
2023-02-06T15:41:08.622Z,-1.93
2023-02-06T15:43:36.795Z,-2.00
2023-02-06T15:46:08.384Z,-2.14
2023-02-06T15:48:42.675Z,-2.23
2023-02-06T15:51:23.136Z,-2.35
2023-02-06T15:53:52.311Z,-2.41
2023-02-06T15:56:25.711Z,-2.54
2023-02-06T15:58:57.802Z,-2.56
2023-02-06T16:01:27.148Z,-2.61
2023-02-06T16:04:01.322Z,-2.71
2023-02-06T16:06:30.623Z,-2.78
2023-02-06T16:09:00.722Z,-2.87
2023-02-06T16:11:48.145Z,-2.96
2023-02-06T16:14:24.057Z,-3.06
2023-02-06T16:17:01.112Z,-3.04
2023-02-06T16:19:38.833Z,-3.19
2023-02-06T16:22:25.465Z,-3.25
2023-02-06T16:24:55.561Z,-3.24
2023-02-06T16:27:25.725Z,-3.20
2023-02-06T16:29:59.518Z,-3.07
2023-02-06T16:32:32.402Z,-3.25
2023-02-06T16:35:03.266Z,-3.35
2023-02-06T16:37:32.802Z,-3.59
2023-02-06T16:40:03.827Z,-3.80
2023-02-06T16:42:35.279Z,-3.83
2023-02-06T16:45:08.358Z,-3.72
2023-02-06T16:47:38.936Z,-3.56
2023-02-06T16:50:09.537Z,-3.55
2023-02-06T16:52:47.591Z,-3.77
2023-02-06T16:55:22.152Z,-4.03
2023-02-06T16:57:53.836Z,-4.05
2023-02-06T17:00:24.335Z,-3.74
2023-02-06T17:02:53.179Z,-3.78
2023-02-06T17:05:25.132Z,-4.11
2023-02-06T17:07:56.430Z,-4.35
2023-02-06T17:10:29.077Z,-4.45
2023-02-06T17:12:57.016Z,-4.57
2023-02-06T17:15:24.937Z,-4.60
2023-02-06T17:17:54.753Z,-4.68
2023-02-06T17:20:29.385Z,-4.81
2023-02-06T17:22:58.687Z,-4.85
2023-02-06T17:25:26.764Z,-4.94
2023-02-06T17:27:54.843Z,-5.08
2023-02-06T17:30:27.576Z,-5.06
2023-02-06T17:32:56.287Z,-4.97
2023-02-06T17:35:25.041Z,-5.07
2023-02-06T17:37:53.342Z,-5.22
2023-02-06T17:40:27.810Z,-5.07
2023-02-06T17:42:56.376Z,-4.80
2023-02-06T17:45:24.575Z,-4.88
2023-02-06T17:47:52.775Z,-4.92
2023-02-06T17:50:21.980Z,-5.07
2023-02-06T17:52:52.713Z,-5.12
2023-02-06T17:55:24.246Z,-5.38
2023-02-06T17:57:52.430Z,-5.53
2023-02-06T18:00:27.634Z,-5.49
2023-02-06T18:02:56.722Z,-5.66
2023-02-06T18:05:25.274Z,-5.90
2023-02-06T18:07:53.213Z,-5.95
2023-02-06T18:10:26.304Z,-5.98
2023-02-06T18:12:54.364Z,-6.01
2023-02-06T18:15:22.556Z,-6.02
2023-02-06T18:17:50.672Z,-6.04
2023-02-06T18:20:18.800Z,-6.12
2023-02-06T18:22:47.321Z,-6.10
2023-02-06T18:25:18.488Z,-6.22
2023-02-06T18:27:50.895Z,-6.14
2023-02-06T18:30:20.712Z,-5.97
2023-02-06T18:32:53.555Z,-5.97
2023-02-06T18:35:21.584Z,-5.90
2023-02-06T18:37:50.223Z,-6.06
2023-02-06T18:40:18.372Z,-6.22
2023-02-06T18:42:54.890Z,-6.24
2023-02-06T18:45:25.763Z,-6.35
2023-02-06T18:47:53.718Z,-6.46
2023-02-06T18:50:22.436Z,-6.59
2023-02-06T18:52:51.046Z,-6.76
2023-02-06T18:55:19.094Z,-6.88
2023-02-06T18:57:47.522Z,-6.81
2023-02-06T19:00:17.873Z,-6.83
2023-02-06T19:02:47.527Z,-6.88
2023-02-06T19:05:15.558Z,-6.89
2023-02-06T19:07:43.574Z,-6.66
2023-02-06T19:10:16.201Z,-6.70
2023-02-06T19:12:44.344Z,-6.52
2023-02-06T19:15:12.660Z,-6.73
2023-02-06T19:17:41.471Z,-6.86
2023-02-06T19:20:12.990Z,-6.89
2023-02-06T19:22:40.985Z,-7.18
2023-02-06T19:25:13.341Z,-7.25
2023-02-06T19:27:42.192Z,-7.37
2023-02-06T19:30:11.130Z,-7.36
2023-02-06T19:32:39.053Z,-7.41
2023-02-06T19:35:07.746Z,-7.46
2023-02-06T19:37:37.034Z,-7.55
2023-02-06T19:40:05.456Z,-7.47
2023-02-06T19:42:33.388Z,-7.47
2023-02-06T19:45:01.310Z,-7.69
2023-02-06T19:47:29.253Z,-7.54
2023-02-06T19:49:57.347Z,-7.60
2023-02-06T19:52:26.148Z,-7.69
2023-02-06T19:54:55.689Z,-7.79
2023-02-06T19:57:23.609Z,-7.85
2023-02-06T19:59:51.551Z,-7.85
2023-02-06T20:02:19.748Z,-7.79
2023-02-06T20:04:47.693Z,-7.70
2023-02-06T20:07:15.701Z,-7.87
2023-02-06T20:09:43.731Z,-7.81
2023-02-06T20:12:13.454Z,-7.49
2023-02-06T20:14:41.423Z,-7.47
2023-02-06T20:17:09.403Z,-7.45
2023-02-06T20:19:37.712Z,-7.51
2023-02-06T20:22:06.358Z,-7.64
2023-02-06T20:24:34.739Z,-7.81
2023-02-06T20:27:05.916Z,-7.80
2023-02-06T20:29:37.159Z,-7.67
2023-02-06T20:32:05.861Z,-7.69
2023-02-06T20:34:34.201Z,-7.72
2023-02-06T20:37:02.171Z,-7.71
2023-02-06T20:39:31.079Z,-7.68
2023-02-06T20:41:59.335Z,-7.67
2023-02-06T20:44:27.456Z,-7.69
2023-02-06T20:46:56.735Z,-7.76
2023-02-06T20:49:26.397Z,-7.96
2023-02-06T20:51:54.486Z,-8.14
2023-02-06T20:54:22.519Z,-8.30
2023-02-06T20:56:50.492Z,-8.38
2023-02-06T20:59:19.822Z,-8.47
2023-02-06T21:01:47.808Z,-8.45
2023-02-06T21:04:17.969Z,-8.59
2023-02-06T21:06:47.903Z,-8.68
2023-02-06T21:09:15.930Z,-8.76
2023-02-06T21:11:45.645Z,-8.67
2023-02-06T21:14:14.383Z,-8.43
2023-02-06T21:16:43.735Z,-8.54
2023-02-06T21:19:13.095Z,-8.50
2023-02-06T21:21:45.597Z,-8.31
2023-02-06T21:24:14.639Z,-8.51
2023-02-06T21:26:42.613Z,-8.47
2023-02-06T21:29:11.618Z,-8.51
2023-02-06T21:31:39.631Z,-8.41
2023-02-06T21:34:09.678Z,-8.54
2023-02-06T21:36:39.172Z,-8.67
2023-02-06T21:39:09.209Z,-8.92
2023-02-06T21:41:37.819Z,-9.00
2023-02-06T21:44:06.336Z,-8.93
2023-02-06T21:46:34.677Z,-8.74
2023-02-06T21:49:02.610Z,-8.65
2023-02-06T21:51:31.478Z,-8.65
2023-02-06T21:54:02.319Z,-8.75
2023-02-06T21:56:32.138Z,-8.77
2023-02-06T21:59:00.045Z,-8.76
2023-02-06T22:01:32.712Z,-8.93
2023-02-06T22:04:01.293Z,-9.04
2023-02-06T22:06:29.510Z,-9.09
2023-02-06T22:09:04.484Z,-9.17
2023-02-06T22:11:33.883Z,-9.15
2023-02-06T22:14:05.183Z,-9.06
2023-02-06T22:16:33.572Z,-8.96
2023-02-06T22:19:01.811Z,-8.93
2023-02-06T22:21:31.092Z,-8.76
2023-02-06T22:24:00.638Z,-8.89
2023-02-06T22:26:31.089Z,-8.98
2023-02-06T22:29:00.444Z,-9.14
2023-02-06T22:31:29.689Z,-8.86
2023-02-06T22:33:58.917Z,-8.90
2023-02-06T22:36:29.844Z,-8.80
2023-02-06T22:38:59.750Z,-8.91
2023-02-06T22:41:27.777Z,-8.98
2023-02-06T22:43:55.700Z,-9.04
2023-02-06T22:46:27.347Z,-9.20
2023-02-06T22:48:55.704Z,-9.29
2023-02-06T22:51:24.365Z,-9.22
2023-02-06T22:53:52.851Z,-9.10
2023-02-06T22:56:31.700Z,-9.30
2023-02-06T22:59:01.606Z,-9.20
2023-02-06T23:01:33.158Z,-9.35
2023-02-06T23:04:02.212Z,-9.27
2023-02-06T23:06:31.410Z,-9.28
2023-02-06T23:08:59.859Z,-9.35
2023-02-06T23:11:28.327Z,-9.26
2023-02-06T23:13:58.102Z,-9.29
2023-02-06T23:16:26.946Z,-9.34
2023-02-06T23:18:56.412Z,-9.55
2023-02-06T23:21:27.246Z,-9.60
2023-02-06T23:23:55.987Z,-9.63
2023-02-06T23:26:24.824Z,-9.26
2023-02-06T23:28:52.823Z,-9.37
2023-02-06T23:31:20.861Z,-9.37
2023-02-06T23:33:48.832Z,-9.56
2023-02-06T23:36:20.695Z,-9.56
2023-02-06T23:38:49.096Z,-9.50
2023-02-06T23:41:18.771Z,-9.58
2023-02-06T23:43:50.893Z,-9.55
2023-02-06T23:46:20.069Z,-9.79
2023-02-06T23:48:49.445Z,-9.92
2023-02-06T23:51:19.554Z,-9.97
2023-02-06T23:53:47.576Z,-10.09
2023-02-06T23:56:17.312Z,-10.10
2023-02-06T23:58:45.856Z,-10.18
